CheckWX is a tool to help pilots better visualize weather data.  It is not intended as a substitute for an official pre-flight weather briefing.

06:52:24 UTC

OJAQ TAF
Aqaba King Hussein International Airport
Aqaba, Jordan
TAF OJAQ 160424Z 1606/1712 35012KT 8000 NSC

Jun-16@
06:00 UTC

Jun-16 @ 06:00 UTC

Jun-17@
12:00 UTC

Jun-17 @ 12:00 UTC

TAF OJAQ 160424Z 1606/1712 35012KT 8000 NSC
Wind
  • 350° at 12 KTS
Cloud Levels
  • No significant clouds